Time;durP1;ratioP1;P1;durP2;ratioP2;P2;SDS_P1;SDS_P2;PMS_P1;PMS_P2;Temp;Humidity;BMP_temperature;BMP_pressure;BME280_temperature;BME280_humidity;BME280_pressure;Samples;Min_cycle;Max_cycle;Signal;HPM_P1;HPM_P2
2022/09/28 00:00:31;;;;;;;2.40;1.42;;;8.90;99.90;;;;;;6198933;22;20101;-83
2022/09/28 00:02:58;;;;;;;3.33;1.00;;;8.90;99.90;;;;;;6250835;22;20016;-83
2022/09/28 00:05:27;;;;;;;1.85;0.88;;;9.10;99.90;;;;;;6244622;22;20443;-80
2022/09/28 00:07:53;;;;;;;1.30;0.60;;;9.00;99.90;;;;;;6217745;22;20027;-78
2022/09/28 00:10:22;;;;;;;0.63;0.60;;;9.00;99.90;;;;;;6220960;22;20016;-82
2022/09/28 00:12:49;;;;;;;3.53;0.75;;;9.10;99.90;;;;;;6229824;22;20020;-81
2022/09/28 00:15:15;;;;;;;2.42;0.70;;;9.20;99.90;;;;;;6196815;22;20023;-82
2022/09/28 00:17:43;;;;;;;1.33;0.77;;;9.20;99.90;;;;;;6218500;22;20074;-83
2022/09/28 00:20:10;;;;;;;1.30;0.50;;;9.30;99.90;;;;;;6218478;22;20047;-83
2022/09/28 00:22:36;;;;;;;4.93;0.82;;;9.30;99.90;;;;;;6218095;22;20030;-83
2022/09/28 00:25:02;;;;;;;4.35;0.80;;;9.40;99.90;;;;;;6217539;22;20026;-82
2022/09/28 00:27:28;;;;;;;2.03;0.80;;;9.40;99.90;;;;;;6191721;22;20022;-82
2022/09/28 00:29:54;;;;;;;2.70;0.70;;;9.40;99.90;;;;;;6193306;22;20406;-84
2022/09/28 00:32:23;;;;;;;1.15;0.63;;;9.40;99.90;;;;;;6218399;22;20024;-84
2022/09/28 00:34:50;;;;;;;4.13;0.70;;;9.40;99.90;;;;;;6168571;22;20019;-82
2022/09/28 00:37:18;;;;;;;1.88;0.90;;;9.60;99.90;;;;;;6217940;22;20023;-83
2022/09/28 00:39:44;;;;;;;2.15;0.68;;;9.50;99.90;;;;;;6217756;22;20019;-83
2022/09/28 00:42:22;;;;;;;3.03;0.70;;;9.60;99.90;;;;;;6167518;22;20020;-82
2022/09/28 00:44:53;;;;;;;3.03;0.88;;;9.70;99.90;;;;;;6217596;22;20023;-81
2022/09/28 00:47:50;;;;;;;2.35;0.63;;;9.50;99.90;;;;;;6217296;22;20394;-83
2022/09/28 00:50:28;;;;;;;4.13;0.90;;;9.50;99.90;;;;;;6243720;22;20380;-84
2022/09/28 00:53:00;;;;;;;0.75;0.50;;;10.50;99.90;;;;;;6216735;22;20054;-83
2022/09/28 00:55:54;;;;;;;1.23;0.52;;;9.50;99.90;;;;;;6217371;22;20020;-82
2022/09/28 00:58:28;;;;;;;0.70;0.50;;;9.50;99.90;;;;;;6202960;22;20028;-83
2022/09/28 01:00:56;;;;;;;1.20;0.60;;;9.50;99.90;;;;;;6217101;22;20015;-84
2022/09/28 01:03:23;;;;;;;3.70;0.80;;;9.40;99.90;;;;;;6216418;22;20098;-84
2022/09/28 01:05:51;;;;;;;1.58;0.50;;;9.40;99.90;;;;;;6216933;22;20020;-83
2022/09/28 01:08:20;;;;;;;1.48;0.60;;;9.40;99.90;;;;;;6216704;22;20023;-83
2022/09/28 01:10:46;;;;;;;0.80;0.60;;;9.70;99.90;;;;;;6216971;22;20024;-84
2022/09/28 01:13:14;;;;;;;3.08;0.80;;;9.30;99.90;;;;;;6241304;22;20011;-84
2022/09/28 01:15:55;;;;;;;3.20;0.75;;;9.30;99.90;;;;;;6216070;22;20394;-84
2022/09/28 01:18:26;;;;;;;1.98;0.60;;;9.20;99.90;;;;;;6241712;22;20027;-83
2022/09/28 01:21:01;;;;;;;1.50;0.65;;;9.20;99.90;;;;;;6242140;22;20427;-82
2022/09/28 01:24:09;;;;;;;1.10;0.70;;;9.20;99.90;;;;;;6216833;22;20034;-83
2022/09/28 01:26:49;;;;;;;2.50;0.50;;;9.10;99.90;;;;;;6241421;22;20063;-83
2022/09/28 01:29:40;;;;;;;2.78;0.85;;;9.10;99.90;;;;;;6216615;22;20029;-84
2022/09/28 01:32:14;;;;;;;2.15;0.80;;;9.10;99.90;;;;;;6216377;22;20023;-84
2022/09/28 01:34:52;;;;;;;1.67;0.52;;;9.00;99.90;;;;;;6217109;22;20026;-84
2022/09/28 01:37:30;;;;;;;1.25;0.50;;;9.00;99.90;;;;;;6215941;22;20015;-83
2022/09/28 01:39:57;;;;;;;1.52;0.52;;;9.00;99.90;;;;;;6215789;22;20026;-83
2022/09/28 01:42:28;;;;;;;1.85;0.88;;;8.90;99.90;;;;;;6216567;22;20019;-82
2022/09/28 01:45:00;;;;;;;1.02;0.60;;;8.90;99.90;;;;;;6241817;22;20022;-84
2022/09/28 01:47:28;;;;;;;1.58;0.77;;;8.80;99.90;;;;;;6243357;22;20034;-83
2022/09/28 01:50:01;;;;;;;2.05;0.60;;;8.80;99.90;;;;;;6216849;22;20433;-83
2022/09/28 01:52:40;;;;;;;2.88;0.60;;;9.10;99.90;;;;;;6217453;22;20073;-84
2022/09/28 01:55:25;;;;;;;1.05;0.60;;;8.80;99.90;;;;;;6216360;22;20030;-84
2022/09/28 01:57:57;;;;;;;2.88;0.63;;;8.70;99.90;;;;;;6215548;22;20050;-83
2022/09/28 02:00:23;;;;;;;1.02;0.60;;;8.70;99.90;;;;;;6217374;22;20019;-84
2022/09/28 02:02:59;;;;;;;1.38;0.60;;;8.60;99.90;;;;;;6217267;22;20037;-82
2022/09/28 02:05:46;;;;;;;2.20;0.60;;;8.70;99.90;;;;;;6243608;22;20012;-84
2022/09/28 02:08:27;;;;;;;2.45;0.63;;;8.60;99.90;;;;;;6240861;22;20346;-83
2022/09/28 02:10:55;;;;;;;1.60;0.50;;;8.60;99.90;;;;;;6215859;22;20435;-83
2022/09/28 02:13:30;;;;;;;1.90;0.68;;;8.50;99.90;;;;;;6242722;22;20115;-81
2022/09/28 02:16:14;;;;;;;0.98;0.60;;;8.50;99.90;;;;;;6221639;22;20024;-82
2022/09/28 02:18:40;;;;;;;0.98;0.65;;;8.50;99.90;;;;;;6253328;22;20015;-78
2022/09/28 02:21:40;;;;;;;3.53;0.77;;;9.30;99.90;;;;;;6250117;22;20015;-84
2022/09/28 02:24:28;;;;;;;1.17;0.70;;;8.40;99.90;;;;;;6222227;22;20018;-83
2022/09/28 02:26:59;;;;;;;1.10;0.50;;;9.60;99.90;;;;;;6216935;22;20020;-84
2022/09/28 02:29:25;;;;;;;1.27;0.60;;;8.40;99.90;;;;;;6251542;22;20016;-83
2022/09/28 02:31:51;;;;;;;1.15;0.70;;;8.30;99.90;;;;;;6231985;22;20022;-83
2022/09/28 02:34:17;;;;;;;1.15;0.60;;;8.30;99.90;;;;;;6194555;22;20012;-83
2022/09/28 02:36:44;;;;;;;0.75;0.50;;;8.30;99.90;;;;;;6191205;22;20020;-83
2022/09/28 02:39:15;;;;;;;2.58;0.70;;;8.90;99.90;;;;;;6214626;22;20114;-84
2022/09/28 02:41:44;;;;;;;2.60;0.68;;;8.50;99.90;;;;;;6215114;22;20016;-82
2022/09/28 02:44:20;;;;;;;1.73;0.55;;;8.20;99.90;;;;;;6215984;22;20020;-82
2022/09/28 02:47:06;;;;;;;1.40;0.68;;;8.20;99.90;;;;;;6240198;22;20462;-83
2022/09/28 02:49:35;;;;;;;1.23;0.60;;;6.90;99.90;;;;;;6216454;22;20027;-83
2022/09/28 02:52:19;;;;;;;1.10;0.70;;;8.30;99.90;;;;;;6215813;22;20015;-83
2022/09/28 02:55:00;;;;;;;1.05;0.40;;;8.80;99.90;;;;;;6216435;22;20098;-84
2022/09/28 02:57:56;;;;;;;0.88;0.80;;;8.20;99.90;;;;;;6214443;22;20098;-83
2022/09/28 03:00:23;;;;;;;1.60;1.17;;;8.20;99.90;;;;;;6188372;23;20024;-81
2022/09/28 03:03:14;;;;;;;0.85;0.60;;;8.10;99.90;;;;;;6154976;23;20630;-84
2022/09/28 03:05:46;;;;;;;2.70;0.60;;;8.10;99.90;;;;;;6180391;23;20052;-84
2022/09/28 03:08:20;;;;;;;1.30;0.60;;;8.10;99.90;;;;;;6180256;23;20025;-84
2022/09/28 03:11:12;;;;;;;1.67;0.75;;;8.10;99.90;;;;;;6181294;23;20055;-81
2022/09/28 03:13:38;;;;;;;4.03;0.68;;;8.00;99.90;;;;;;6180346;23;20020;-84
2022/09/28 03:16:16;;;;;;;0.88;0.60;;;8.30;99.90;;;;;;6130765;23;20058;-83
2022/09/28 03:18:42;;;;;;;3.25;0.82;;;8.00;99.90;;;;;;6180489;23;20056;-83
2022/09/28 03:21:10;;;;;;;1.65;0.60;;;8.00;99.90;;;;;;6154232;23;20063;-83
2022/09/28 03:23:36;;;;;;;2.92;0.57;;;8.00;99.90;;;;;;6180072;23;20028;-84
2022/09/28 03:26:02;;;;;;;0.88;0.68;;;8.00;99.90;;;;;;6179720;23;20024;-83
2022/09/28 03:28:28;;;;;;;1.38;0.60;;;9.50;99.90;;;;;;6155010;23;20016;-82
2022/09/28 03:30:54;;;;;;;1.13;0.60;;;8.00;99.90;;;;;;6204534;23;20020;-84
2022/09/28 03:33:21;;;;;;;1.73;0.57;;;8.00;99.90;;;;;;6179831;23;20081;-82
2022/09/28 03:35:49;;;;;;;0.70;0.55;;;8.00;99.90;;;;;;6181101;23;20057;-82
2022/09/28 03:38:18;;;;;;;1.13;0.57;;;8.00;99.90;;;;;;6178756;23;20522;-84
2022/09/28 03:40:55;;;;;;;1.63;0.70;;;8.00;99.90;;;;;;6180288;23;20444;-84
2022/09/28 03:43:21;;;;;;;0.68;0.50;;;8.00;99.90;;;;;;6205138;23;20020;-84
2022/09/28 03:45:58;;;;;;;2.45;0.50;;;8.10;99.90;;;;;;6156536;23;20039;-84
2022/09/28 03:48:25;;;;;;;4.35;0.95;;;7.90;99.90;;;;;;6204021;23;20127;-83
2022/09/28 03:50:53;;;;;;;1.95;0.60;;;7.90;99.90;;;;;;6181191;23;20012;-83
2022/09/28 03:53:19;;;;;;;1.45;0.60;;;7.90;99.90;;;;;;6156730;23;20107;-83
2022/09/28 03:55:45;;;;;;;2.20;0.70;;;8.90;99.90;;;;;;6182392;23;20073;-83
2022/09/28 03:58:10;;;;;;;1.65;0.70;;;7.80;99.90;;;;;;6130316;23;20028;-84
2022/09/28 04:00:39;;;;;;;0.80;0.60;;;7.80;99.90;;;;;;6185555;23;20013;-79
2022/09/28 04:03:05;;;;;;;1.83;0.70;;;8.30;99.90;;;;;;6182514;23;20445;-82
2022/09/28 04:05:31;;;;;;;2.55;0.95;;;7.80;99.90;;;;;;6156694;23;20023;-83
2022/09/28 04:07:56;;;;;;;1.95;0.63;;;7.80;99.90;;;;;;6182765;23;20119;-82
2022/09/28 04:10:23;;;;;;;1.40;0.90;;;7.80;99.90;;;;;;6156744;23;20052;-80
2022/09/28 04:12:49;;;;;;;1.73;0.75;;;7.70;99.90;;;;;;6182168;23;20408;-77
2022/09/28 04:15:15;;;;;;;2.58;0.60;;;7.80;99.90;;;;;;6207721;23;20022;-82
2022/09/28 04:17:41;;;;;;;1.55;0.80;;;7.60;99.90;;;;;;6184403;23;20021;-84
2022/09/28 04:20:07;;;;;;;1.23;0.55;;;7.70;99.90;;;;;;6157682;23;20101;-83
2022/09/28 04:22:36;;;;;;;2.20;0.60;;;7.70;99.90;;;;;;6208902;23;20025;-83
2022/09/28 04:25:03;;;;;;;2.08;0.70;;;8.80;99.90;;;;;;6163725;23;20348;-84
2022/09/28 04:30:13;;;;;;;2.00;0.85;;;7.70;99.90;;;;;;6189938;23;20076;-85
2022/09/28 04:32:39;;;;;;;1.15;0.60;;;8.30;99.90;;;;;;6185640;23;20027;-85
2022/09/28 04:35:06;;;;;;;3.08;1.00;;;7.80;99.90;;;;;;6185425;23;20052;-83
2022/09/28 04:37:32;;;;;;;1.80;1.00;;;7.80;99.90;;;;;;6172549;23;20021;-84
2022/09/28 04:39:58;;;;;;;2.10;0.77;;;;;;;;;;6194687;23;20025;-84
2022/09/28 04:42:24;;;;;;;3.22;0.95;;;7.90;99.90;;;;;;6211823;23;20017;-84
2022/09/28 04:44:50;;;;;;;1.20;0.60;;;8.60;99.90;;;;;;6185945;23;20047;-85
2022/09/28 04:47:16;;;;;;;1.75;0.90;;;8.30;99.90;;;;;;6186607;23;20028;-84
2022/09/28 04:49:41;;;;;;;3.38;1.13;;;8.00;99.90;;;;;;6149913;23;20027;-85
2022/09/28 04:52:10;;;;;;;2.33;0.85;;;8.80;99.90;;;;;;6189597;23;20510;-84
2022/09/28 04:54:36;;;;;;;1.98;0.90;;;8.00;99.90;;;;;;6160648;23;20020;-84
2022/09/28 04:57:02;;;;;;;2.42;0.82;;;8.10;99.90;;;;;;6160729;23;20467;-86
2022/09/28 04:59:28;;;;;;;1.67;0.90;;;8.10;99.90;;;;;;6184882;23;20310;-83
2022/09/28 05:01:54;;;;;;;2.05;0.88;;;8.20;99.90;;;;;;6185051;23;20109;-84
2022/09/28 05:04:19;;;;;;;2.47;1.23;;;8.20;99.90;;;;;;6184272;23;20027;-84
2022/09/28 05:06:45;;;;;;;2.28;1.20;;;8.20;99.90;;;;;;6135749;23;20051;-84
2022/09/28 05:09:11;;;;;;;2.70;1.02;;;8.20;99.90;;;;;;6185395;23;20017;-83
2022/09/28 05:11:36;;;;;;;1.20;0.88;;;8.30;99.90;;;;;;6185506;23;20351;-84
2022/09/28 05:14:02;;;;;;;1.90;1.20;;;8.30;99.90;;;;;;6185051;23;20020;-82
2022/09/28 05:16:29;;;;;;;3.45;1.30;;;8.30;99.90;;;;;;6209519;23;20091;-83
2022/09/28 05:18:56;;;;;;;3.83;1.13;;;8.30;99.90;;;;;;6160744;23;20683;-83
2022/09/28 05:21:24;;;;;;;4.55;1.42;;;8.40;99.90;;;;;;6184595;23;20020;-83
2022/09/28 05:23:49;;;;;;;2.83;1.52;;;8.30;99.90;;;;;;6210706;23;20013;-81
2022/09/28 05:26:15;;;;;;;2.42;1.30;;;8.30;99.90;;;;;;6160325;23;20016;-84
2022/09/28 05:28:41;;;;;;;1.88;1.10;;;9.10;99.90;;;;;;6184311;23;20023;-83
2022/09/28 05:31:07;;;;;;;4.00;1.90;;;8.30;99.90;;;;;;6185236;23;20027;-84
2022/09/28 05:33:33;;;;;;;2.38;1.10;;;8.30;99.90;;;;;;6210605;23;20017;-84
2022/09/28 05:35:59;;;;;;;2.70;1.27;;;9.60;99.90;;;;;;6185101;23;20027;-84
2022/09/28 05:38:25;;;;;;;3.45;1.40;;;8.10;99.90;;;;;;6209020;23;20025;-83
2022/09/28 05:40:51;;;;;;;4.38;1.23;;;8.10;99.90;;;;;;6160982;23;20115;-84
2022/09/28 05:43:17;;;;;;;2.50;1.20;;;8.10;99.90;;;;;;6184898;23;20071;-80
2022/09/28 05:45:43;;;;;;;2.30;1.20;;;9.20;99.90;;;;;;6210570;23;20020;-83
2022/09/28 05:48:08;;;;;;;4.18;1.50;;;8.00;99.90;;;;;;6135575;23;20393;-85
2022/09/28 05:50:34;;;;;;;2.78;1.10;;;8.80;99.90;;;;;;6159430;23;20027;-84
2022/09/28 05:53:07;;;;;;;2.45;1.38;;;9.20;99.90;;;;;;6210473;23;20070;-85
2022/09/28 05:55:34;;;;;;;2.42;1.40;;;8.70;99.90;;;;;;6185163;23;20078;-84
2022/09/28 05:58:02;;;;;;;2.38;1.38;;;8.00;99.90;;;;;;6184560;23;20083;-85
2022/09/28 06:00:28;;;;;;;2.88;1.52;;;8.30;99.90;;;;;;6209497;22;20345;-84
2022/09/28 06:02:59;;;;;;;3.33;1.30;;;8.00;99.90;;;;;;6185070;23;20020;-84
2022/09/28 06:05:27;;;;;;;5.35;1.90;;;8.00;99.90;;;;;;6184535;23;20056;-83
2022/09/28 06:07:59;;;;;;;4.03;2.10;;;8.00;99.90;;;;;;6159762;23;20123;-82
2022/09/28 06:10:27;;;;;;;2.90;1.55;;;7.90;99.90;;;;;;6209314;23;20075;-86
2022/09/28 06:12:54;;;;;;;1.90;1.40;;;8.70;99.90;;;;;;6184827;23;20024;-82
2022/09/28 06:15:21;;;;;;;2.90;1.60;;;8.10;99.90;;;;;;6184402;23;20028;-81
2022/09/28 06:17:47;;;;;;;2.35;1.50;;;8.00;99.90;;;;;;6209798;23;20115;-81
2022/09/28 06:20:13;;;;;;;2.50;1.60;;;8.10;99.90;;;;;;6210004;23;20052;-83
2022/09/28 06:22:39;;;;;;;3.47;1.60;;;8.30;99.90;;;;;;6184648;23;20024;-83
2022/09/28 06:25:05;;;;;;;2.20;1.40;;;8.40;99.90;;;;;;6184786;23;20016;-82
2022/09/28 06:27:33;;;;;;;2.00;1.30;;;8.40;99.90;;;;;;6184109;23;20440;-81
2022/09/28 06:29:59;;;;;;;4.20;2.00;;;8.70;99.90;;;;;;6184384;23;20440;-81
2022/09/28 06:32:28;;;;;;;2.92;1.52;;;8.90;99.90;;;;;;6184517;23;20038;-82
2022/09/28 06:34:54;;;;;;;4.35;1.67;;;8.90;99.90;;;;;;6185158;23;20048;-83
2022/09/28 06:37:20;;;;;;;4.03;1.63;;;9.10;99.90;;;;;;6184126;23;20033;-81
2022/09/28 06:39:45;;;;;;;5.63;1.83;;;9.30;99.90;;;;;;6210175;23;20020;-83
2022/09/28 06:42:11;;;;;;;2.08;1.20;;;9.60;99.90;;;;;;6160367;23;20447;-84
2022/09/28 06:44:37;;;;;;;5.00;1.23;;;9.90;99.90;;;;;;6184257;23;20013;-83
2022/09/28 06:47:02;;;;;;;5.25;0.95;;;10.00;99.90;;;;;;6184448;23;20039;-82
2022/09/28 06:49:29;;;;;;;3.90;1.50;;;10.10;99.90;;;;;;6208472;23;20079;-82
2022/09/28 06:51:55;;;;;;;2.30;1.13;;;10.20;99.90;;;;;;6183589;23;20021;-83
2022/09/28 06:54:24;;;;;;;3.58;1.30;;;10.40;99.90;;;;;;6181113;23;20028;-83
2022/09/28 06:56:51;;;;;;;4.60;1.30;;;11.00;99.90;;;;;;6195920;23;20036;-83
2022/09/28 06:59:17;;;;;;;3.15;1.10;;;10.40;99.90;;;;;;6191456;23;20021;-81
2022/09/28 07:01:43;;;;;;;5.20;1.02;;;10.30;99.90;;;;;;6186339;23;20032;-82
2022/09/28 07:04:09;;;;;;;4.70;1.27;;;10.30;99.90;;;;;;6209605;23;20031;-82
2022/09/28 07:06:35;;;;;;;4.38;1.00;;;10.30;99.90;;;;;;6212792;23;20020;-82
2022/09/28 07:09:05;;;;;;;4.45;1.10;;;11.40;99.90;;;;;;6172776;23;20452;-83
2022/09/28 07:11:38;;;;;;;1.98;0.80;;;9.70;99.90;;;;;;6187124;23;20024;-82
2022/09/28 07:14:04;;;;;;;5.88;1.70;;;10.30;99.90;;;;;;6210389;23;20055;-83
2022/09/28 07:16:30;;;;;;;2.33;0.70;;;10.30;99.90;;;;;;6184540;23;20132;-82
2022/09/28 07:18:56;;;;;;;2.85;0.80;;;10.40;99.90;;;;;;6184793;23;20510;-82
2022/09/28 07:21:21;;;;;;;3.75;0.82;;;10.30;99.90;;;;;;6209001;23;20436;-82
2022/09/28 07:23:47;;;;;;;2.92;1.00;;;10.30;99.90;;;;;;6184643;23;20025;-83
2022/09/28 07:26:14;;;;;;;2.38;0.90;;;10.30;99.90;;;;;;6159952;23;20071;-83
2022/09/28 07:28:41;;;;;;;5.13;0.95;;;10.40;99.90;;;;;;6211694;23;20562;-83
2022/09/28 07:31:08;;;;;;;2.20;0.98;;;10.40;99.90;;;;;;6210905;23;20052;-83
2022/09/28 07:33:34;;;;;;;1.13;0.60;;;10.40;99.90;;;;;;6161377;23;20017;-83
2022/09/28 07:36:05;;;;;;;1.48;0.73;;;10.40;99.90;;;;;;6186826;23;20500;-83
2022/09/28 07:38:31;;;;;;;3.38;0.70;;;10.40;99.90;;;;;;6185862;23;20040;-83
2022/09/28 07:41:15;;;;;;;1.90;0.55;;;10.50;99.90;;;;;;6161773;23;20017;-83
2022/09/28 07:43:41;;;;;;;1.38;0.50;;;10.60;99.90;;;;;;6211467;23;20021;-83
2022/09/28 07:46:11;;;;;;;2.20;0.57;;;10.70;99.90;;;;;;6210913;23;20016;-83
2022/09/28 07:48:41;;;;;;;1.13;0.68;;;10.80;99.90;;;;;;6211568;23;20020;-83
2022/09/28 07:51:08;;;;;;;2.95;0.73;;;10.80;99.90;;;;;;6210798;23;20104;-83
2022/09/28 07:53:34;;;;;;;4.70;1.75;;;10.90;99.90;;;;;;6210741;23;20020;-83
2022/09/28 07:56:08;;;;;;;3.50;1.73;;;11.10;99.90;;;;;;6186705;23;20020;-83
2022/09/28 07:58:38;;;;;;;3.60;1.70;;;11.20;99.90;;;;;;6186242;23;20060;-83
2022/09/28 08:01:13;;;;;;;3.58;0.63;;;11.50;99.90;;;;;;6211254;22;20462;-83
2022/09/28 08:03:44;;;;;;;0.75;0.57;;;11.70;99.90;;;;;;6210571;23;20016;-83
2022/09/28 08:06:11;;;;;;;1.40;0.70;;;11.90;99.90;;;;;;6162296;23;20027;-83
2022/09/28 08:08:43;;;;;;;0.70;0.50;;;12.10;99.90;;;;;;6186269;23;20031;-83
2022/09/28 08:11:15;;;;;;;4.05;0.77;;;12.40;99.90;;;;;;6211478;23;20020;-84
2022/09/28 08:13:42;;;;;;;2.25;0.80;;;12.60;99.90;;;;;;6185755;23;20028;-83
2022/09/28 08:16:11;;;;;;;2.25;0.77;;;12.80;99.90;;;;;;6185499;23;20099;-84
2022/09/28 08:18:37;;;;;;;1.92;0.60;;;13.00;99.90;;;;;;6210600;23;20102;-83
2022/09/28 08:23:49;;;;;;;0.88;0.50;;;13.40;99.90;;;;;;6211125;23;20017;-82
2022/09/28 08:26:18;;;;;;;1.95;0.47;;;13.50;99.90;;;;;;6210444;23;20016;-82
2022/09/28 08:28:47;;;;;;;5.35;0.50;;;13.80;99.90;;;;;;6186587;23;20360;-84
2022/09/28 08:31:13;;;;;;;0.90;0.55;;;14.00;99.90;;;;;;6210915;23;20020;-83
2022/09/28 08:33:40;;;;;;;2.20;0.50;;;14.20;99.90;;;;;;6185514;23;20031;-83
2022/09/28 08:36:08;;;;;;;0.95;0.50;;;14.40;99.90;;;;;;6209976;23;20028;-82
2022/09/28 08:38:34;;;;;;;3.13;0.60;;;14.60;99.90;;;;;;6185300;23;20102;-82
2022/09/28 08:41:12;;;;;;;0.75;0.38;;;14.90;99.90;;;;;;6186274;23;20024;-82
2022/09/28 08:43:58;;;;;;;0.65;0.40;;;15.00;99.90;;;;;;6185118;23;20027;-82
2022/09/28 08:46:32;;;;;;;2.22;0.50;;;15.10;99.90;;;;;;6209981;23;20084;-82
2022/09/28 08:49:07;;;;;;;1.30;0.50;;;15.20;99.90;;;;;;6185904;23;20351;-82
2022/09/28 08:51:42;;;;;;;2.90;0.75;;;15.20;99.90;;;;;;6210826;23;20021;-82
2022/09/28 08:54:20;;;;;;;2.53;0.50;;;15.30;99.90;;;;;;6210951;23;20012;-85
2022/09/28 08:56:45;;;;;;;1.35;0.30;;;15.10;99.90;;;;;;6210156;23;20028;-82
2022/09/28 08:59:16;;;;;;;1.23;0.50;;;15.10;99.90;;;;;;6218899;22;20021;-84
2022/09/28 09:01:47;;;;;;;1.42;0.47;;;15.10;99.90;;;;;;6221622;22;20099;-83
2022/09/28 09:04:14;;;;;;;2.45;0.60;;;15.00;99.90;;;;;;6247398;22;20070;-83
2022/09/28 09:07:14;;;;;;;0.80;0.55;;;14.90;99.90;;;;;;6246142;22;20405;-83
2022/09/28 09:09:56;;;;;;;1.70;0.50;;;14.80;99.90;;;;;;6222626;22;20386;-82
2022/09/28 09:12:28;;;;;;;2.00;0.57;;;14.70;99.90;;;;;;6251343;22;20015;-81
2022/09/28 09:15:16;;;;;;;2.28;0.57;;;14.50;99.90;;;;;;6238981;22;20020;-81
2022/09/28 09:17:57;;;;;;;2.88;0.60;;;14.40;99.90;;;;;;6248371;22;20043;-82
2022/09/28 09:20:56;;;;;;;1.98;0.50;;;14.30;99.90;;;;;;6222781;22;20020;-83
2022/09/28 09:23:51;;;;;;;3.40;0.77;;;14.20;99.90;;;;;;6172505;22;20078;-83
2022/09/28 09:26:20;;;;;;;6.97;1.05;;;14.40;99.90;;;;;;6263623;22;20094;-81
2022/09/28 09:29:23;;;;;;;1.40;0.55;;;14.60;99.90;;;;;;6225614;22;20020;-83
2022/09/28 09:32:07;;;;;;;1.58;0.60;;;14.70;99.90;;;;;;6245926;22;20020;-77
2022/09/28 09:34:57;;;;;;;4.05;0.63;;;14.90;99.90;;;;;;6220228;22;20024;-84
2022/09/28 09:37:25;;;;;;;2.90;0.70;;;15.10;99.90;;;;;;6220119;22;20055;-83
2022/09/28 09:40:09;;;;;;;1.13;0.60;;;15.20;99.90;;;;;;6220188;22;20065;-79
2022/09/28 09:43:17;;;;;;;2.42;0.80;;;15.40;99.90;;;;;;6218558;22;20015;-84
2022/09/28 09:45:59;;;;;;;3.20;0.65;;;15.60;99.90;;;;;;6219956;22;20024;-83
2022/09/28 09:48:33;;;;;;;3.03;0.60;;;15.60;99.90;;;;;;6218735;22;20022;-82
2022/09/28 09:51:12;;;;;;;3.03;0.60;;;15.50;99.90;;;;;;6217465;22;20012;-84
2022/09/28 09:53:49;;;;;;;4.47;0.85;;;15.50;99.90;;;;;;6217222;22;20023;-83
2022/09/28 09:56:43;;;;;;;3.40;0.70;;;15.60;99.90;;;;;;6216529;22;20019;-84
2022/09/28 09:59:18;;;;;;;2.47;0.50;;;15.40;99.90;;;;;;6215430;22;20062;-84
2022/09/28 10:01:45;;;;;;;3.00;0.60;;;15.40;99.90;;;;;;6240329;22;20518;-83
2022/09/28 10:04:23;;;;;;;1.80;0.75;;;15.40;99.90;;;;;;6240259;22;20324;-80
2022/09/28 10:06:55;;;;;;;2.30;0.50;;;15.30;99.90;;;;;;6239982;22;20019;-85
2022/09/28 10:09:31;;;;;;;3.03;0.60;;;15.20;99.90;;;;;;6239964;22;20011;-83
2022/09/28 10:11:57;;;;;;;2.13;0.50;;;14.90;99.90;;;;;;6215738;22;20027;-86
2022/09/28 10:14:24;;;;;;;4.65;0.82;;;14.80;99.90;;;;;;6243495;22;20016;-81
2022/09/28 10:16:53;;;;;;;2.67;0.55;;;14.60;99.90;;;;;;6243518;22;20070;-81
2022/09/28 10:19:33;;;;;;;3.33;0.73;;;14.50;99.90;;;;;;6244253;22;20031;-81
2022/09/28 10:22:02;;;;;;;4.05;0.52;;;14.30;99.90;;;;;;6219308;22;20019;-82
2022/09/28 10:24:35;;;;;;;2.60;0.90;;;14.30;99.90;;;;;;6219466;22;20773;-81
2022/09/28 10:27:17;;;;;;;4.05;0.75;;;13.60;99.90;;;;;;6218797;22;20024;-82
2022/09/28 10:29:51;;;;;;;1.80;0.40;;;14.40;99.90;;;;;;6216795;22;20443;-82
2022/09/28 10:32:24;;;;;;;1.83;0.60;;;14.40;99.90;;;;;;6217088;22;20098;-83
2022/09/28 10:34:52;;;;;;;2.08;0.70;;;14.60;99.90;;;;;;6214750;22;20102;-83
2022/09/28 10:37:18;;;;;;;1.02;0.45;;;14.70;99.90;;;;;;6240187;22;20462;-83
2022/09/28 10:39:52;;;;;;;1.95;0.60;;;14.80;99.90;;;;;;6241380;22;20394;-83
2022/09/28 10:42:30;;;;;;;1.40;0.47;;;15.00;99.90;;;;;;6242003;22;20016;-84
2022/09/28 10:45:24;;;;;;;2.83;0.52;;;15.00;99.90;;;;;;6216429;22;20258;-83
2022/09/28 10:47:50;;;;;;;2.88;0.60;;;14.80;99.90;;;;;;6239387;22;20024;-83
2022/09/28 10:50:29;;;;;;;2.65;0.57;;;15.50;99.90;;;;;;6216259;22;20016;-85
2022/09/28 10:53:10;;;;;;;1.15;0.50;;;16.00;99.90;;;;;;6215944;22;20085;-82
2022/09/28 10:55:36;;;;;;;1.45;0.55;;;16.30;99.90;;;;;;6214756;22;20069;-82
2022/09/28 10:58:23;;;;;;;3.50;0.68;;;16.60;99.90;;;;;;6213940;22;20030;-84
2022/09/28 11:00:51;;;;;;;2.90;0.77;;;17.00;99.90;;;;;;6186002;23;20117;-82
2022/09/28 11:03:24;;;;;;;1.67;0.70;;;17.00;99.90;;;;;;6207276;23;20013;-84
2022/09/28 11:06:05;;;;;;;1.67;0.55;;;17.10;99.90;;;;;;6206180;23;20123;-83
2022/09/28 11:08:44;;;;;;;2.15;0.50;;;17.50;99.90;;;;;;6207904;23;20393;-83
2022/09/28 11:11:14;;;;;;;3.45;0.60;;;18.00;99.90;;;;;;6157601;23;20021;-84
2022/09/28 11:13:41;;;;;;;1.80;0.63;;;18.50;99.90;;;;;;6181200;23;20392;-83
2022/09/28 11:16:17;;;;;;;2.92;0.75;;;19.00;99.90;;;;;;6182015;23;20397;-84
2022/09/28 11:18:42;;;;;;;4.95;0.77;;;19.40;99.90;;;;;;6207436;23;20025;-84
2022/09/28 11:21:14;;;;;;;2.00;0.55;;;19.60;99.90;;;;;;6206526;23;20017;-84
2022/09/28 11:23:43;;;;;;;2.53;0.50;;;19.70;99.90;;;;;;6183045;23;20360;-83
2022/09/28 11:26:11;;;;;;;2.50;0.60;;;19.90;99.90;;;;;;6159395;23;20454;-84
2022/09/28 11:28:40;;;;;;;2.28;0.40;;;19.50;99.90;;;;;;6210103;23;20013;-83
2022/09/28 11:31:07;;;;;;;2.60;0.80;;;18.90;99.90;;;;;;6195405;23;20147;-84
2022/09/28 11:33:40;;;;;;;3.30;0.60;;;18.80;99.90;;;;;;6192844;23;20403;-85
2022/09/28 11:36:17;;;;;;;0.88;0.47;;;18.00;99.90;;;;;;6182291;23;20056;-84
2022/09/28 11:39:09;;;;;;;1.58;0.63;;;19.00;99.90;;;;;;6181929;23;20020;-85
2022/09/28 11:42:08;;;;;;;1.92;0.57;;;19.20;99.90;;;;;;6216451;23;20095;-84
2022/09/28 11:44:45;;;;;;;3.10;0.85;;;19.30;99.90;;;;;;6214212;23;20719;-85
2022/09/28 11:47:20;;;;;;;1.40;0.50;;;19.40;99.90;;;;;;6207113;23;20060;-87
2022/09/28 11:49:59;;;;;;;0.70;0.45;;;19.00;99.90;;;;;;6182355;23;20103;-86
2022/09/28 11:52:35;;;;;;;0.75;0.30;;;18.50;99.90;;;;;;6204325;23;20060;-85
2022/09/28 11:55:10;;;;;;;1.02;0.55;;;18.10;99.90;;;;;;6180605;23;20496;-87
2022/09/28 11:57:39;;;;;;;1.20;0.53;;;17.90;99.90;;;;;;6180513;23;20405;-85
2022/09/28 12:00:14;;;;;;;1.13;0.40;;;17.90;99.90;;;;;;6181065;23;20025;-85
2022/09/28 12:03:05;;;;;;;0.90;0.40;;;17.50;99.90;;;;;;6179635;23;20103;-84
2022/09/28 12:05:46;;;;;;;1.15;0.70;;;18.20;99.90;;;;;;6181872;23;20038;-83
2022/09/28 12:08:26;;;;;;;0.75;0.32;;;18.40;99.90;;;;;;6180036;23;20463;-84
2022/09/28 12:10:59;;;;;;;2.67;0.40;;;18.90;99.90;;;;;;6179976;23;20082;-83
2022/09/28 12:13:27;;;;;;;0.98;0.50;;;19.40;99.90;;;;;;6206779;23;20024;-82
2022/09/28 12:16:13;;;;;;;1.00;0.40;;;19.70;99.90;;;;;;6180593;23;20017;-82
2022/09/28 12:19:14;;;;;;;0.85;0.40;;;19.70;99.90;;;;;;6208358;23;20028;-83
2022/09/28 12:21:50;;;;;;;0.40;0.30;;;19.50;99.90;;;;;;6188336;23;20020;-84
2022/09/28 12:24:56;;;;;;;2.13;0.60;;;20.30;99.90;;;;;;6211169;23;20020;-84
2022/09/28 12:27:40;;;;;;;1.35;0.40;;;19.40;99.90;;;;;;6094200;23;20028;-83
2022/09/28 12:30:18;;;;;;;0.73;0.50;;;19.90;99.90;;;;;;6094855;23;20021;-82
2022/09/28 12:32:59;;;;;;;0.47;0.40;;;20.10;99.90;;;;;;6177351;23;20352;-86
2022/09/28 12:35:43;;;;;;;0.73;0.50;;;20.30;99.90;;;;;;6181125;23;20028;-85
2022/09/28 12:38:30;;;;;;;0.43;0.30;;;20.70;99.90;;;;;;6180948;23;20456;-81
2022/09/28 12:41:27;;;;;;;0.43;0.30;;;21.00;99.90;;;;;;6205878;23;20070;-85
2022/09/28 12:47:04;;;;;;;0.43;0.32;;;21.10;99.90;;;;;;6196938;23;20702;-84
2022/09/28 12:49:50;;;;;;;1.50;0.40;;;21.30;99.90;;;;;;6208291;23;20028;-89
2022/09/28 12:53:09;;;;;;;;;;;;;;;;;;;;;
2022/09/28 12:59:18;;;;;;;0.73;0.40;;;21.20;99.90;;;;;;6206973;23;20036;-82
2022/09/28 13:01:46;;;;;;;1.30;0.40;;;21.20;99.80;;;;;;6239607;23;20016;-83
2022/09/28 13:04:34;;;;;;;2.38;0.50;;;21.00;99.90;;;;;;6238248;23;20038;-83
2022/09/28 13:07:27;;;;;;;0.60;0.40;;;21.30;99.60;;;;;;6238623;23;20012;-82
2022/09/28 13:10:01;;;;;;;1.17;0.40;;;21.00;99.70;;;;;;6239330;23;20106;-83
2022/09/28 13:12:47;;;;;;;1.98;0.70;;;20.40;99.60;;;;;;6211998;23;20066;-83
2022/09/28 13:15:23;;;;;;;1.55;0.50;;;21.20;99.60;;;;;;6219642;23;20023;-79
2022/09/28 13:18:01;;;;;;;;;;;20.80;99.40;;;;;;6248735;23;20027;-84
2022/09/28 13:20:49;;;;;;;0.88;0.43;;;20.60;99.70;;;;;;6249852;23;19927;-83
2022/09/28 13:23:22;;;;;;;0.95;0.52;;;20.50;99.80;;;;;;6209161;23;20020;-83
2022/09/28 13:25:58;;;;;;;1.20;0.60;;;20.50;99.70;;;;;;6233902;23;20375;-84
2022/09/28 13:28:24;;;;;;;;;;;20.60;99.80;;;;;;6211703;23;20019;-84
2022/09/28 13:30:52;;;;;;;1.88;0.50;;;20.50;98.60;;;;;;6211091;23;19931;-81
2022/09/28 13:33:34;;;;;;;2.20;0.43;;;20.50;99.80;;;;;;6239006;23;20031;-85